sensor_id;sensor_type;location;lat;lon;timestamp;pressure;altitude;pressure_sealevel;temperature;humidity
14120;BME280;7138;49.246;9.100;2023-02-23T00:01:57;98378.84;;;11.86;95.91
14120;BME280;7138;49.246;9.100;2023-02-23T00:04:31;98383.13;;;11.90;95.97
14120;BME280;7138;49.246;9.100;2023-02-23T00:06:57;98378.75;;;11.93;95.52
14120;BME280;7138;49.246;9.100;2023-02-23T00:09:23;98384.78;;;11.95;95.18
14120;BME280;7138;49.246;9.100;2023-02-23T00:11:50;98378.69;;;11.98;95.22
14120;BME280;7138;49.246;9.100;2023-02-23T00:14:18;98371.81;;;11.95;95.26
14120;BME280;7138;49.246;9.100;2023-02-23T00:16:45;98377.84;;;12.00;95.76
14120;BME280;7138;49.246;9.100;2023-02-23T00:19:12;98380.38;;;12.03;95.52
14120;BME280;7138;49.246;9.100;2023-02-23T00:21:40;98380.38;;;12.03;95.32
14120;BME280;7138;49.246;9.100;2023-02-23T00:24:08;98377.75;;;12.05;95.83
14120;BME280;7138;49.246;9.100;2023-02-23T00:26:36;98372.56;;;12.05;96.12
14120;BME280;7138;49.246;9.100;2023-02-23T00:29:07;98375.16;;;12.07;95.72
14120;BME280;7138;49.246;9.100;2023-02-23T00:31:34;98370.81;;;12.07;95.46
14120;BME280;7138;49.246;9.100;2023-02-23T00:34:03;98369.94;;;12.08;95.95
14120;BME280;7138;49.246;9.100;2023-02-23T00:36:32;98365.63;;;12.07;96.01
14120;BME280;7138;49.246;9.100;2023-02-23T00:39:00;98367.34;;;12.08;96.02
14120;BME280;7138;49.246;9.100;2023-02-23T00:41:27;98363.03;;;12.07;95.59
14120;BME280;7138;49.246;9.100;2023-02-23T00:43:55;98361.31;;;12.07;95.97
14120;BME280;7138;49.246;9.100;2023-02-23T00:46:24;98356.16;;;12.06;96.29
14120;BME280;7138;49.246;9.100;2023-02-23T00:48:52;98357.09;;;11.99;96.14
14120;BME280;7138;49.246;9.100;2023-02-23T00:51:25;98357.97;;;11.98;96.34
14120;BME280;7138;49.246;9.100;2023-02-23T00:53:53;98362.28;;;11.99;96.20
14120;BME280;7138;49.246;9.100;2023-02-23T00:56:19;98355.38;;;11.99;96.21
14120;BME280;7138;49.246;9.100;2023-02-23T00:58:46;98353.69;;;11.97;95.91
14120;BME280;7138;49.246;9.100;2023-02-23T01:01:14;98360.53;;;12.02;96.79
14120;BME280;7138;49.246;9.100;2023-02-23T01:03:42;98364.00;;;11.98;96.96
14120;BME280;7138;49.246;9.100;2023-02-23T01:06:11;98358.91;;;11.94;96.60
14120;BME280;7138;49.246;9.100;2023-02-23T01:08:41;98364.97;;;11.91;96.67
14120;BME280;7138;49.246;9.100;2023-02-23T01:11:10;98359.81;;;11.90;96.22
14120;BME280;7138;49.246;9.100;2023-02-23T01:13:38;98364.16;;;11.86;96.76
14120;BME280;7138;49.246;9.100;2023-02-23T01:16:05;98373.63;;;11.89;96.81
14120;BME280;7138;49.246;9.100;2023-02-23T01:18:32;98372.78;;;11.88;96.56
14120;BME280;7138;49.246;9.100;2023-02-23T01:21:02;98372.78;;;11.87;96.30
14120;BME280;7138;49.246;9.100;2023-02-23T01:23:30;98370.22;;;11.85;96.58
14120;BME280;7138;49.246;9.100;2023-02-23T01:25:58;98368.53;;;11.81;97.43
14120;BME280;7138;49.246;9.100;2023-02-23T01:28:24;98365.97;;;11.78;97.54
14120;BME280;7138;49.246;9.100;2023-02-23T01:30:50;98371.16;;;11.77;97.45
14120;BME280;7138;49.246;9.100;2023-02-23T01:33:16;98370.34;;;11.76;97.86
14120;BME280;7138;49.246;9.100;2023-02-23T01:35:42;98369.47;;;11.76;97.25
14120;BME280;7138;49.246;9.100;2023-02-23T01:38:09;98369.47;;;11.76;97.64
14120;BME280;7138;49.246;9.100;2023-02-23T01:40:34;98356.59;;;11.67;98.61
14120;BME280;7138;49.246;9.100;2023-02-23T01:43:15;98358.28;;;11.72;98.70
14120;BME280;7138;49.246;9.100;2023-02-23T01:45:43;98363.47;;;11.72;98.51
14120;BME280;7138;49.246;9.100;2023-02-23T01:48:14;98357.41;;;11.73;98.65
14120;BME280;7138;49.246;9.100;2023-02-23T01:50:47;98361.72;;;11.73;97.99
14120;BME280;7138;49.246;9.100;2023-02-23T01:53:18;98366.06;;;11.72;97.55
14120;BME280;7138;49.246;9.100;2023-02-23T01:55:48;98358.28;;;11.72;98.19
14120;BME280;7138;49.246;9.100;2023-02-23T01:58:19;98358.25;;;11.74;98.27
14120;BME280;7138;49.246;9.100;2023-02-23T02:00:49;98362.59;;;11.73;98.02
14120;BME280;7138;49.246;9.100;2023-02-23T02:03:25;98361.72;;;11.68;99.49
14120;BME280;7138;49.246;9.100;2023-02-23T02:05:53;98359.16;;;11.68;99.35
14120;BME280;7138;49.246;9.100;2023-02-23T02:08:20;98360.03;;;11.70;99.07
14120;BME280;7138;49.246;9.100;2023-02-23T02:10:48;98355.69;;;11.71;99.30
14120;BME280;7138;49.246;9.100;2023-02-23T02:13:26;98353.97;;;11.73;99.10
14120;BME280;7138;49.246;9.100;2023-02-23T02:16:39;98357.38;;;11.76;98.70
14120;BME280;7138;49.246;9.100;2023-02-23T02:19:54;98356.53;;;11.74;98.47
14120;BME280;7138;49.246;9.100;2023-02-23T02:23:20;98349.66;;;11.73;98.56
14120;BME280;7138;49.246;9.100;2023-02-23T02:26:03;98344.47;;;11.69;98.70
14120;BME280;7138;49.246;9.100;2023-02-23T02:29:06;98352.25;;;11.73;98.37
14120;BME280;7138;49.246;9.100;2023-02-23T02:32:21;98349.66;;;11.73;98.54
14120;BME280;7138;49.246;9.100;2023-02-23T02:38:33;98340.16;;;11.71;99.33
14120;BME280;7138;49.246;9.100;2023-02-23T02:41:11;98349.66;;;11.72;99.64
14120;BME280;7138;49.246;9.100;2023-02-23T02:43:47;98337.53;;;11.74;99.05
14120;BME280;7138;49.246;9.100;2023-02-23T02:46:20;98336.66;;;11.75;99.28
14120;BME280;7138;49.246;9.100;2023-02-23T02:48:56;98337.50;;;11.77;99.16
14120;BME280;7138;49.246;9.100;2023-02-23T02:51:30;98335.75;;;11.79;99.48
14120;BME280;7138;49.246;9.100;2023-02-23T02:54:06;98334.88;;;11.81;99.16
14120;BME280;7138;49.246;9.100;2023-02-23T02:56:39;98334.00;;;11.81;99.04
14120;BME280;7138;49.246;9.100;2023-02-23T02:59:11;98334.88;;;11.81;98.79
14120;BME280;7138;49.246;9.100;2023-02-23T03:01:56;98322.81;;;11.77;99.18
14120;BME280;7138;49.246;9.100;2023-02-23T03:04:41;98336.59;;;11.81;98.80
14120;BME280;7138;49.246;9.100;2023-02-23T03:07:32;98337.41;;;11.83;98.84
14120;BME280;7138;49.246;9.100;2023-02-23T03:10:29;98339.16;;;11.84;98.95
14120;BME280;7138;49.246;9.100;2023-02-23T03:13:35;98324.47;;;11.84;98.81
14120;BME280;7138;49.246;9.100;2023-02-23T03:16:36;98330.50;;;11.83;99.01
14120;BME280;7138;49.246;9.100;2023-02-23T03:19:28;98333.09;;;11.85;99.14
14120;BME280;7138;49.246;9.100;2023-02-23T03:22:22;98335.66;;;11.86;99.54
14120;BME280;7138;49.246;9.100;2023-02-23T03:25:14;98329.63;;;11.86;98.84
14120;BME280;7138;49.246;9.100;2023-02-23T03:28:09;98337.38;;;11.87;98.81
14120;BME280;7138;49.246;9.100;2023-02-23T03:31:06;98334.78;;;11.87;98.77
14120;BME280;7138;49.246;9.100;2023-02-23T03:34:11;98337.34;;;11.89;99.22
14120;BME280;7138;49.246;9.100;2023-02-23T03:37:05;98344.28;;;11.88;99.54
14120;BME280;7138;49.246;9.100;2023-02-23T03:40:03;98342.53;;;11.90;100.00
14120;BME280;7138;49.246;9.100;2023-02-23T03:42:52;98315.97;;;11.73;100.00
14120;BME280;7138;49.246;9.100;2023-02-23T03:45:43;98339.94;;;11.89;100.00
14120;BME280;7138;49.246;9.100;2023-02-23T03:48:30;98336.59;;;11.82;100.00
14120;BME280;7138;49.246;9.100;2023-02-23T03:51:17;98340.00;;;11.83;100.00
14120;BME280;7138;49.246;9.100;2023-02-23T03:54:11;98327.97;;;11.80;100.00
14120;BME280;7138;49.246;9.100;2023-02-23T03:57:00;98339.97;;;11.86;100.00
14120;BME280;7138;49.246;9.100;2023-02-23T03:59:52;98336.53;;;11.87;100.00
14120;BME280;7138;49.246;9.100;2023-02-23T04:02:42;98337.47;;;11.80;100.00
14120;BME280;7138;49.246;9.100;2023-02-23T04:05:29;98336.66;;;11.76;100.00
14120;BME280;7138;49.246;9.100;2023-02-23T04:08:18;98344.41;;;11.78;100.00
14120;BME280;7138;49.246;9.100;2023-02-23T04:11:09;98329.84;;;11.63;100.00
14120;BME280;7138;49.246;9.100;2023-02-23T04:14:01;98348.75;;;11.76;100.00
14120;BME280;7138;49.246;9.100;2023-02-23T04:16:30;98340.00;;;11.83;100.00
14120;BME280;7138;49.246;9.100;2023-02-23T04:18:58;98344.28;;;11.88;100.00
14120;BME280;7138;49.246;9.100;2023-02-23T04:21:24;98342.50;;;11.92;100.00
14120;BME280;7138;49.246;9.100;2023-02-23T04:23:50;98337.31;;;11.93;100.00
14120;BME280;7138;49.246;9.100;2023-02-23T04:26:16;98335.59;;;11.94;100.00
14120;BME280;7138;49.246;9.100;2023-02-23T04:28:42;98343.31;;;11.97;100.00
14120;BME280;7138;49.246;9.100;2023-02-23T04:31:08;98347.69;;;11.93;100.00
14120;BME280;7138;49.246;9.100;2023-02-23T04:33:34;98345.09;;;11.93;100.00
14120;BME280;7138;49.246;9.100;2023-02-23T04:36:01;98349.44;;;11.90;100.00
14120;BME280;7138;49.246;9.100;2023-02-23T04:38:27;98347.72;;;11.90;100.00
14120;BME280;7138;49.246;9.100;2023-02-23T04:40:52;98351.13;;;11.92;100.00
14120;BME280;7138;49.246;9.100;2023-02-23T04:43:18;98338.22;;;11.91;100.00
14120;BME280;7138;49.246;9.100;2023-02-23T04:45:44;98350.22;;;11.96;100.00
14120;BME280;7138;49.246;9.100;2023-02-23T04:48:10;98349.41;;;11.94;100.00
14120;BME280;7138;49.246;9.100;2023-02-23T04:50:36;98350.28;;;11.92;100.00
14120;BME280;7138;49.246;9.100;2023-02-23T04:53:04;98355.41;;;11.95;100.00
14120;BME280;7138;49.246;9.100;2023-02-23T04:55:30;98350.22;;;11.95;100.00
14120;BME280;7138;49.246;9.100;2023-02-23T04:57:59;98342.50;;;11.93;100.00
14120;BME280;7138;49.246;9.100;2023-02-23T05:00:25;98347.72;;;11.90;100.00
14120;BME280;7138;49.246;9.100;2023-02-23T05:02:52;98349.47;;;11.88;100.00
14120;BME280;7138;49.246;9.100;2023-02-23T05:05:18;98342.59;;;11.83;100.00
14120;BME280;7138;49.246;9.100;2023-02-23T05:07:44;98344.34;;;11.84;100.00
14120;BME280;7138;49.246;9.100;2023-02-23T05:10:11;98347.78;;;11.83;100.00
14120;BME280;7138;49.246;9.100;2023-02-23T05:12:37;98351.19;;;11.86;100.00
14120;BME280;7138;49.246;9.100;2023-02-23T05:15:04;98346.91;;;11.84;100.00
14120;BME280;7138;49.246;9.100;2023-02-23T05:17:30;98344.41;;;11.79;100.00
14120;BME280;7138;49.246;9.100;2023-02-23T05:19:56;98349.63;;;11.76;100.00
14120;BME280;7138;49.246;9.100;2023-02-23T05:22:22;98351.38;;;11.71;100.00
14120;BME280;7138;49.246;9.100;2023-02-23T05:24:48;98327.28;;;11.62;100.00
14120;BME280;7138;49.246;9.100;2023-02-23T05:27:15;98345.28;;;11.74;100.00
14120;BME280;7138;49.246;9.100;2023-02-23T05:29:42;98349.63;;;11.75;100.00
14120;BME280;7138;49.246;9.100;2023-02-23T05:32:08;98352.28;;;11.70;100.00
14120;BME280;7138;49.246;9.100;2023-02-23T05:34:34;98349.69;;;11.70;100.00
14120;BME280;7138;49.246;9.100;2023-02-23T05:37:00;98342.75;;;11.72;100.00
14120;BME280;7138;49.246;9.100;2023-02-23T05:39:26;98355.63;;;11.77;100.00
14120;BME280;7138;49.246;9.100;2023-02-23T05:41:51;98355.63;;;11.78;100.00
14120;BME280;7138;49.246;9.100;2023-02-23T05:44:18;98352.16;;;11.79;100.00
14120;BME280;7138;49.246;9.100;2023-02-23T05:46:44;98345.22;;;11.81;100.00
14120;BME280;7138;49.246;9.100;2023-02-23T05:49:12;98346.97;;;11.81;100.00
14120;BME280;7138;49.246;9.100;2023-02-23T05:51:37;98353.81;;;11.83;100.00
14120;BME280;7138;49.246;9.100;2023-02-23T05:54:04;98347.84;;;11.78;100.00
14120;BME280;7138;49.246;9.100;2023-02-23T05:56:30;98348.72;;;11.79;100.00
14120;BME280;7138;49.246;9.100;2023-02-23T05:58:57;98351.28;;;11.82;100.00
14120;BME280;7138;49.246;9.100;2023-02-23T06:01:26;98354.75;;;11.78;100.00
14120;BME280;7138;49.246;9.100;2023-02-23T06:03:52;98353.03;;;11.78;100.00
14120;BME280;7138;49.246;9.100;2023-02-23T06:06:18;98349.56;;;11.79;100.00
14120;BME280;7138;49.246;9.100;2023-02-23T06:08:45;98360.88;;;11.72;100.00
14120;BME280;7138;49.246;9.100;2023-02-23T06:11:11;98364.38;;;11.62;100.00
14120;BME280;7138;49.246;9.100;2023-02-23T06:13:37;98367.81;;;11.66;100.00
14120;BME280;7138;49.246;9.100;2023-02-23T06:16:04;98356.59;;;11.65;100.00
14120;BME280;7138;49.246;9.100;2023-02-23T06:18:31;98365.25;;;11.64;100.00
14120;BME280;7138;49.246;9.100;2023-02-23T06:20:59;98364.38;;;11.64;100.00
14120;BME280;7138;49.246;9.100;2023-02-23T06:23:25;98369.53;;;11.67;100.00
14120;BME280;7138;49.246;9.100;2023-02-23T06:25:51;98366.06;;;11.69;100.00
14120;BME280;7138;49.246;9.100;2023-02-23T06:28:17;98372.97;;;11.72;100.00
14120;BME280;7138;49.246;9.100;2023-02-23T06:30:43;98373.81;;;11.72;100.00
14120;BME280;7138;49.246;9.100;2023-02-23T06:33:11;98364.31;;;11.73;100.00
14120;BME280;7138;49.246;9.100;2023-02-23T06:35:39;98370.34;;;11.76;100.00
14120;BME280;7138;49.246;9.100;2023-02-23T06:38:04;98376.34;;;11.77;100.00
14120;BME280;7138;49.246;9.100;2023-02-23T06:40:30;98378.03;;;11.81;100.00
14120;BME280;7138;49.246;9.100;2023-02-23T06:42:56;98374.59;;;11.82;100.00
14120;BME280;7138;49.246;9.100;2023-02-23T06:45:22;98382.34;;;11.80;100.00
14120;BME280;7138;49.246;9.100;2023-02-23T06:47:48;98372.00;;;11.80;100.00
14120;BME280;7138;49.246;9.100;2023-02-23T06:50:15;98389.22;;;11.83;100.00
14120;BME280;7138;49.246;9.100;2023-02-23T06:52:42;98381.47;;;11.84;100.00
14120;BME280;7138;49.246;9.100;2023-02-23T06:55:08;98388.34;;;11.87;100.00
14120;BME280;7138;49.246;9.100;2023-02-23T06:57:34;98394.38;;;11.87;100.00
14120;BME280;7138;49.246;9.100;2023-02-23T07:00:02;98392.63;;;11.89;100.00
14120;BME280;7138;49.246;9.100;2023-02-23T07:02:28;98393.47;;;11.90;100.00
14120;BME280;7138;49.246;9.100;2023-02-23T07:04:54;98399.50;;;11.92;100.00
14120;BME280;7138;49.246;9.100;2023-02-23T07:07:20;98399.50;;;11.92;100.00
14120;BME280;7138;49.246;9.100;2023-02-23T07:09:48;98402.94;;;11.92;100.00
14120;BME280;7138;49.246;9.100;2023-02-23T07:12:13;98400.34;;;11.94;100.00
14120;BME280;7138;49.246;9.100;2023-02-23T07:14:39;98410.66;;;11.98;100.00
14120;BME280;7138;49.246;9.100;2023-02-23T07:17:05;98402.91;;;11.97;100.00
14120;BME280;7138;49.246;9.100;2023-02-23T07:19:32;98401.97;;;12.01;100.00
14120;BME280;7138;49.246;9.100;2023-02-23T07:21:58;98408.03;;;12.03;100.00
14120;BME280;7138;49.246;9.100;2023-02-23T07:24:24;98406.31;;;12.02;100.00
14120;BME280;7138;49.246;9.100;2023-02-23T07:26:51;98408.00;;;12.04;100.00
14120;BME280;7138;49.246;9.100;2023-02-23T07:29:17;98408.84;;;12.07;100.00
14120;BME280;7138;49.246;9.100;2023-02-23T07:31:43;98397.59;;;12.09;100.00
14120;BME280;7138;49.246;9.100;2023-02-23T07:34:09;98391.63;;;12.01;100.00
14120;BME280;7138;49.246;9.100;2023-02-23T07:36:36;98405.28;;;12.14;100.00
14120;BME280;7138;49.246;9.100;2023-02-23T07:39:03;98408.75;;;12.14;100.00
14120;BME280;7138;49.246;9.100;2023-02-23T07:41:29;98402.66;;;12.17;100.00
14120;BME280;7138;49.246;9.100;2023-02-23T07:43:57;98400.97;;;12.16;100.00
14120;BME280;7138;49.246;9.100;2023-02-23T07:46:24;98410.44;;;12.18;100.00
14120;BME280;7138;49.246;9.100;2023-02-23T07:48:50;98407.78;;;12.23;100.00
14120;BME280;7138;49.246;9.100;2023-02-23T07:51:16;98403.50;;;12.22;100.00
14120;BME280;7138;49.246;9.100;2023-02-23T07:57:23;98411.94;;;12.34;100.00
14120;BME280;7138;49.246;9.100;2023-02-23T07:59:50;98411.03;;;12.40;100.00
14120;BME280;7138;49.246;9.100;2023-02-23T08:02:16;98415.31;;;12.42;100.00
14120;BME280;7138;49.246;9.100;2023-02-23T08:04:42;98416.13;;;12.49;100.00
14120;BME280;7138;49.246;9.100;2023-02-23T08:07:08;98410.81;;;12.56;100.00
14120;BME280;7138;49.246;9.100;2023-02-23T08:09:34;98419.34;;;12.65;100.00
14120;BME280;7138;49.246;9.100;2023-02-23T08:12:01;98418.47;;;12.67;100.00
14120;BME280;7138;49.246;9.100;2023-02-23T08:14:27;98420.00;;;12.80;100.00
14120;BME280;7138;49.246;9.100;2023-02-23T08:16:54;98425.91;;;12.91;100.00
14120;BME280;7138;49.246;9.100;2023-02-23T08:19:20;98424.91;;;13.00;100.00
14120;BME280;7138;49.246;9.100;2023-02-23T08:21:49;98424.78;;;13.07;100.00
14120;BME280;7138;49.246;9.100;2023-02-23T08:24:16;98427.41;;;13.09;100.00
14120;BME280;7138;49.246;9.100;2023-02-23T08:26:42;98428.22;;;13.11;100.00
14120;BME280;7138;49.246;9.100;2023-02-23T08:29:08;98428.94;;;13.22;100.00
14120;BME280;7138;49.246;9.100;2023-02-23T08:31:34;98415.97;;;13.21;100.00
14120;BME280;7138;49.246;9.100;2023-02-23T08:34:01;98429.56;;;13.35;100.00
14120;BME280;7138;49.246;9.100;2023-02-23T08:36:27;98437.34;;;13.35;100.00
14120;BME280;7138;49.246;9.100;2023-02-23T08:38:53;98438.47;;;13.22;100.00
14120;BME280;7138;49.246;9.100;2023-02-23T08:41:20;98437.66;;;13.17;100.00
14120;BME280;7138;49.246;9.100;2023-02-23T08:43:46;98438.50;;;13.17;100.00
14120;BME280;7138;49.246;9.100;2023-02-23T08:46:13;98441.06;;;13.22;100.00
14120;BME280;7138;49.246;9.100;2023-02-23T08:48:41;98438.41;;;13.25;100.00
14120;BME280;7138;49.246;9.100;2023-02-23T08:51:08;98440.13;;;13.24;100.00
14120;BME280;7138;49.246;9.100;2023-02-23T08:53:35;98443.69;;;13.19;100.00
14120;BME280;7138;49.246;9.100;2023-02-23T08:56:03;98442.94;;;13.10;100.00
14120;BME280;7138;49.246;9.100;2023-02-23T08:58:31;98438.66;;;13.05;100.00
14120;BME280;7138;49.246;9.100;2023-02-23T09:00:58;98442.16;;;13.04;100.00
14120;BME280;7138;49.246;9.100;2023-02-23T09:03:28;98439.63;;;12.99;100.00
14120;BME280;7138;49.246;9.100;2023-02-23T09:05:55;98441.34;;;12.99;100.00
14120;BME280;7138;49.246;9.100;2023-02-23T09:08:23;98437.84;;;13.03;100.00
14120;BME280;7138;49.246;9.100;2023-02-23T09:10:49;98447.34;;;13.02;100.00
14120;BME280;7138;49.246;9.100;2023-02-23T09:13:15;98445.63;;;13.01;100.00
14120;BME280;7138;49.246;9.100;2023-02-23T09:15:41;98447.41;;;12.99;100.00
14120;BME280;7138;49.246;9.100;2023-02-23T09:18:11;98433.69;;;12.90;100.00
14120;BME280;7138;49.246;9.100;2023-02-23T09:20:43;98447.66;;;12.80;100.00
14120;BME280;7138;49.246;9.100;2023-02-23T09:23:09;98450.41;;;12.68;100.00
14120;BME280;7138;49.246;9.100;2023-02-23T09:25:40;98449.81;;;12.49;100.00
14120;BME280;7138;49.246;9.100;2023-02-23T09:28:10;98449.78;;;12.52;100.00
14120;BME280;7138;49.246;9.100;2023-02-23T09:30:38;98431.63;;;12.52;100.00
14120;BME280;7138;49.246;9.100;2023-02-23T09:33:04;98445.97;;;12.77;100.00
14120;BME280;7138;49.246;9.100;2023-02-23T09:35:33;98443.16;;;12.94;100.00
14120;BME280;7138;49.246;9.100;2023-02-23T09:38:02;98447.28;;;13.08;100.00
14120;BME280;7138;49.246;9.100;2023-02-23T09:40:36;98446.19;;;13.25;100.00
14120;BME280;7138;49.246;9.100;2023-02-23T09:43:13;98444.03;;;13.51;100.00
14120;BME280;7138;49.246;9.100;2023-02-23T09:45:46;98442.63;;;13.81;100.00
14120;BME280;7138;49.246;9.100;2023-02-23T09:48:17;98437.03;;;14.03;100.00
14120;BME280;7138;49.246;9.100;2023-02-23T09:50:48;98448.78;;;14.24;100.00
14120;BME280;7138;49.246;9.100;2023-02-23T09:53:29;98447.75;;;14.34;100.00
14120;BME280;7138;49.246;9.100;2023-02-23T09:55:58;98439.88;;;14.37;99.42
14120;BME280;7138;49.246;9.100;2023-02-23T09:58:28;98454.50;;;14.43;95.52
14120;BME280;7138;49.246;9.100;2023-02-23T10:01:17;98448.13;;;14.57;96.67
14120;BME280;7138;49.246;9.100;2023-02-23T10:03:54;98446.38;;;14.58;95.91
14120;BME280;7138;49.246;9.100;2023-02-23T10:06:22;98450.47;;;14.69;95.59
14120;BME280;7138;49.246;9.100;2023-02-23T10:09:11;98445.88;;;14.82;96.36
14120;BME280;7138;49.246;9.100;2023-02-23T10:11:48;98444.00;;;14.89;95.95
14120;BME280;7138;49.246;9.100;2023-02-23T10:17:54;98446.63;;;15.25;93.80
14120;BME280;7138;49.246;9.100;2023-02-23T10:20:36;98448.38;;;15.25;92.47
14120;BME280;7138;49.246;9.100;2023-02-23T10:23:10;98458.00;;;15.21;91.88
14120;BME280;7138;49.246;9.100;2023-02-23T10:25:43;98447.44;;;15.26;92.99
14120;BME280;7138;49.246;9.100;2023-02-23T10:28:14;98454.22;;;15.35;92.13
14120;BME280;7138;49.246;9.100;2023-02-23T10:30:43;98452.44;;;15.37;92.11
14120;BME280;7138;49.246;9.100;2023-02-23T10:33:14;98446.47;;;15.31;92.97
14120;BME280;7138;49.246;9.100;2023-02-23T10:35:44;98456.69;;;15.41;91.88
14120;BME280;7138;49.246;9.100;2023-02-23T10:38:15;98446.56;;;15.28;91.06
14120;BME280;7138;49.246;9.100;2023-02-23T10:40:44;98462.84;;;15.37;91.17
14120;BME280;7138;49.246;9.100;2023-02-23T10:43:12;98454.88;;;15.43;91.81
14120;BME280;7138;49.246;9.100;2023-02-23T10:45:46;98457.31;;;15.52;90.45
14120;BME280;7138;49.246;9.100;2023-02-23T10:48:17;98466.47;;;15.68;91.85
14120;BME280;7138;49.246;9.100;2023-02-23T10:50:46;98458.50;;;15.74;89.53
14120;BME280;7138;49.246;9.100;2023-02-23T10:53:20;98469.66;;;15.79;88.27
14120;BME280;7138;49.246;9.100;2023-02-23T10:56:02;98459.31;;;15.76;88.01
14120;BME280;7138;49.246;9.100;2023-02-23T10:58:29;98452.19;;;15.82;89.74
14120;BME280;7138;49.246;9.100;2023-02-23T11:01:00;98448.78;;;16.11;90.04
14120;BME280;7138;49.246;9.100;2023-02-23T11:03:31;98442.25;;;16.29;88.62
14120;BME280;7138;49.246;9.100;2023-02-23T11:05:59;98447.22;;;16.38;85.66
14120;BME280;7138;49.246;9.100;2023-02-23T11:08:30;98446.34;;;16.37;85.14
14120;BME280;7138;49.246;9.100;2023-02-23T11:11:19;98445.78;;;16.59;86.22
14120;BME280;7138;49.246;9.100;2023-02-23T11:13:51;98441.88;;;16.72;85.80
14120;BME280;7138;49.246;9.100;2023-02-23T11:16:21;98448.75;;;16.76;85.16
14120;BME280;7138;49.246;9.100;2023-02-23T11:18:52;98451.94;;;16.85;84.27
14120;BME280;7138;49.246;9.100;2023-02-23T11:21:24;98447.97;;;17.02;85.41
14120;BME280;7138;49.246;9.100;2023-02-23T11:23:53;98450.16;;;17.15;83.67
14120;BME280;7138;49.246;9.100;2023-02-23T11:26:30;98446.19;;;17.30;82.31
14120;BME280;7138;49.246;9.100;2023-02-23T11:29:02;98447.63;;;17.40;84.13
14120;BME280;7138;49.246;9.100;2023-02-23T11:31:34;98443.00;;;17.48;79.95
14120;BME280;7138;49.246;9.100;2023-02-23T11:34:02;98443.44;;;17.62;80.91
14120;BME280;7138;49.246;9.100;2023-02-23T11:36:32;98434.88;;;17.83;81.85
14120;BME280;7138;49.246;9.100;2023-02-23T11:39:18;98439.84;;;18.16;80.48
14120;BME280;7138;49.246;9.100;2023-02-23T11:41:44;98433.19;;;18.30;80.26
14120;BME280;7138;49.246;9.100;2023-02-23T11:44:23;98421.88;;;18.54;81.21
14120;BME280;7138;49.246;9.100;2023-02-23T11:46:51;98424.00;;;18.68;78.87
14120;BME280;7138;49.246;9.100;2023-02-23T11:49:24;98428.16;;;18.50;77.87
14120;BME280;7138;49.246;9.100;2023-02-23T11:51:51;98426.63;;;18.43;76.25
14120;BME280;7138;49.246;9.100;2023-02-23T11:54:25;98431.94;;;18.17;75.54
14120;BME280;7138;49.246;9.100;2023-02-23T11:56:51;98427.25;;;18.02;77.58
14120;BME280;7138;49.246;9.100;2023-02-23T11:59:27;98421.69;;;17.86;76.66
14120;BME280;7138;49.246;9.100;2023-02-23T12:02:04;98418.78;;;17.69;78.08
14120;BME280;7138;49.246;9.100;2023-02-23T12:04:34;98422.41;;;17.65;80.12
14120;BME280;7138;49.246;9.100;2023-02-23T12:07:26;98418.00;;;17.67;79.71
14120;BME280;7138;49.246;9.100;2023-02-23T12:10:03;98410.44;;;17.58;78.96
14120;BME280;7138;49.246;9.100;2023-02-23T12:12:41;98408.69;;;17.59;78.02
14120;BME280;7138;49.246;9.100;2023-02-23T12:15:18;98409.47;;;17.61;78.37
14120;BME280;7138;49.246;9.100;2023-02-23T12:17:55;98405.19;;;17.60;78.23
14120;BME280;7138;49.246;9.100;2023-02-23T12:20:26;98408.38;;;17.68;79.56
14120;BME280;7138;49.246;9.100;2023-02-23T12:22:58;98400.34;;;17.74;78.06
14120;BME280;7138;49.246;9.100;2023-02-23T12:25:33;98403.59;;;17.80;77.91
14120;BME280;7138;49.246;9.100;2023-02-23T12:28:08;98402.53;;;17.86;77.30
14120;BME280;7138;49.246;9.100;2023-02-23T12:30:42;98399.91;;;17.86;74.54
14120;BME280;7138;49.246;9.100;2023-02-23T12:33:17;98396.81;;;17.75;75.50
14120;BME280;7138;49.246;9.100;2023-02-23T12:35:52;98401.41;;;17.68;75.33
14120;BME280;7138;49.246;9.100;2023-02-23T12:38:27;98397.03;;;17.69;76.65
14120;BME280;7138;49.246;9.100;2023-02-23T12:41:05;98397.03;;;17.69;76.07
14120;BME280;7138;49.246;9.100;2023-02-23T12:43:43;98389.06;;;17.72;76.47
14120;BME280;7138;49.246;9.100;2023-02-23T12:46:19;98389.75;;;17.77;77.36
14120;BME280;7138;49.246;9.100;2023-02-23T12:48:59;98391.53;;;17.76;76.48
14120;BME280;7138;49.246;9.100;2023-02-23T12:51:33;98386.53;;;17.93;77.43
14120;BME280;7138;49.246;9.100;2023-02-23T12:54:00;98382.47;;;18.10;77.85
14120;BME280;7138;49.246;9.100;2023-02-23T12:56:48;98386.53;;;18.18;74.39
14120;BME280;7138;49.246;9.100;2023-02-23T12:59:55;98380.16;;;18.25;75.90
14120;BME280;7138;49.246;9.100;2023-02-23T13:02:28;98382.34;;;18.37;76.17
14120;BME280;7138;49.246;9.100;2023-02-23T13:05:15;98377.78;;;18.42;74.94
14120;BME280;7138;49.246;9.100;2023-02-23T13:08:01;98368.16;;;18.43;72.72
14120;BME280;7138;49.246;9.100;2023-02-23T13:10:39;98367.84;;;18.52;72.85
14120;BME280;7138;49.246;9.100;2023-02-23T13:13:24;98375.63;;;18.30;72.40
14120;BME280;7138;49.246;9.100;2023-02-23T13:16:00;98364.75;;;18.18;72.08
14120;BME280;7138;49.246;9.100;2023-02-23T13:18:36;98367.72;;;18.32;73.53
14120;BME280;7138;49.246;9.100;2023-02-23T13:21:16;98363.53;;;18.51;72.99
14120;BME280;7138;49.246;9.100;2023-02-23T13:23:56;98364.31;;;18.53;72.85
14120;BME280;7138;49.246;9.100;2023-02-23T13:26:34;98374.16;;;18.23;71.62
14120;BME280;7138;49.246;9.100;2023-02-23T13:29:06;98367.53;;;18.13;71.33
14120;BME280;7138;49.246;9.100;2023-02-23T13:31:38;98369.16;;;17.92;72.42
14120;BME280;7138;49.246;9.100;2023-02-23T13:34:11;98369.47;;;17.59;73.19
14120;BME280;7138;49.246;9.100;2023-02-23T13:36:42;98376.81;;;17.47;74.40
14120;BME280;7138;49.246;9.100;2023-02-23T13:39:45;98379.19;;;17.27;73.90
14120;BME280;7138;49.246;9.100;2023-02-23T13:42:31;98364.13;;;17.09;74.50
14120;BME280;7138;49.246;9.100;2023-02-23T13:45:20;98361.69;;;17.03;75.58